sensor_id;sensor_type;location;lat;lon;timestamp;temperature;humidity
35796;DHT22;21916;52.428;13.302;2023-03-23T00:01:19;11.60;99.90
35796;DHT22;21916;52.428;13.302;2023-03-23T00:03:48;11.60;99.90
35796;DHT22;21916;52.428;13.302;2023-03-23T00:06:14;11.60;99.90
35796;DHT22;21916;52.428;13.302;2023-03-23T00:08:44;11.60;99.90
35796;DHT22;21916;52.428;13.302;2023-03-23T00:11:17;11.50;99.90
35796;DHT22;21916;52.428;13.302;2023-03-23T00:13:45;11.50;99.90
35796;DHT22;21916;52.428;13.302;2023-03-23T00:16:13;11.50;99.90
35796;DHT22;21916;52.428;13.302;2023-03-23T00:18:50;11.40;99.90
35796;DHT22;21916;52.428;13.302;2023-03-23T00:21:20;11.40;99.90
35796;DHT22;21916;52.428;13.302;2023-03-23T00:23:51;11.40;99.90
35796;DHT22;21916;52.428;13.302;2023-03-23T00:26:18;11.40;99.90
35796;DHT22;21916;52.428;13.302;2023-03-23T00:28:44;11.40;99.90
35796;DHT22;21916;52.428;13.302;2023-03-23T00:31:12;11.30;99.90
35796;DHT22;21916;52.428;13.302;2023-03-23T00:33:39;11.30;99.90
35796;DHT22;21916;52.428;13.302;2023-03-23T00:36:10;11.30;99.90
35796;DHT22;21916;52.428;13.302;2023-03-23T00:38:38;11.30;99.90
35796;DHT22;21916;52.428;13.302;2023-03-23T00:41:05;11.30;99.90
35796;DHT22;21916;52.428;13.302;2023-03-23T00:43:32;11.30;99.90
35796;DHT22;21916;52.428;13.302;2023-03-23T00:45:58;11.30;99.90
35796;DHT22;21916;52.428;13.302;2023-03-23T00:48:28;11.30;99.90
35796;DHT22;21916;52.428;13.302;2023-03-23T00:50:55;11.20;99.90
35796;DHT22;21916;52.428;13.302;2023-03-23T00:53:21;11.30;99.90
35796;DHT22;21916;52.428;13.302;2023-03-23T00:55:48;11.20;99.90
35796;DHT22;21916;52.428;13.302;2023-03-23T00:58:15;11.20;99.90
35796;DHT22;21916;52.428;13.302;2023-03-23T01:00:42;11.30;99.90
35796;DHT22;21916;52.428;13.302;2023-03-23T01:03:09;11.20;99.90
35796;DHT22;21916;52.428;13.302;2023-03-23T01:05:45;11.20;99.90
35796;DHT22;21916;52.428;13.302;2023-03-23T01:08:14;11.20;99.90
35796;DHT22;21916;52.428;13.302;2023-03-23T01:10:40;11.20;99.90
35796;DHT22;21916;52.428;13.302;2023-03-23T01:13:07;11.20;99.90
35796;DHT22;21916;52.428;13.302;2023-03-23T01:15:34;11.20;99.90
35796;DHT22;21916;52.428;13.302;2023-03-23T01:18:01;11.10;99.90
35796;DHT22;21916;52.428;13.302;2023-03-23T01:20:27;11.10;99.90
35796;DHT22;21916;52.428;13.302;2023-03-23T01:22:54;11.10;99.90
35796;DHT22;21916;52.428;13.302;2023-03-23T01:25:27;11.10;99.90
35796;DHT22;21916;52.428;13.302;2023-03-23T01:27:54;11.00;99.90
35796;DHT22;21916;52.428;13.302;2023-03-23T01:30:20;10.90;99.90
35796;DHT22;21916;52.428;13.302;2023-03-23T01:32:46;10.90;99.90
35796;DHT22;21916;52.428;13.302;2023-03-23T01:35:14;10.90;99.90
35796;DHT22;21916;52.428;13.302;2023-03-23T01:37:41;10.90;99.90
35796;DHT22;21916;52.428;13.302;2023-03-23T01:40:08;10.80;99.90
35796;DHT22;21916;52.428;13.302;2023-03-23T01:42:36;10.90;99.90
35796;DHT22;21916;52.428;13.302;2023-03-23T01:51:04;10.80;99.90
35796;DHT22;21916;52.428;13.302;2023-03-23T01:53:59;10.90;99.90
35796;DHT22;21916;52.428;13.302;2023-03-23T01:56:32;10.90;99.90
35796;DHT22;21916;52.428;13.302;2023-03-23T01:59:04;10.90;99.90
35796;DHT22;21916;52.428;13.302;2023-03-23T02:01:31;10.90;99.90
35796;DHT22;21916;52.428;13.302;2023-03-23T02:04:03;10.90;99.90
35796;DHT22;21916;52.428;13.302;2023-03-23T02:06:28;10.80;99.90
35796;DHT22;21916;52.428;13.302;2023-03-23T02:09:05;10.90;99.90
35796;DHT22;21916;52.428;13.302;2023-03-23T02:11:34;10.90;99.90
35796;DHT22;21916;52.428;13.302;2023-03-23T02:14:01;10.90;99.90
35796;DHT22;21916;52.428;13.302;2023-03-23T02:16:33;10.90;99.90
35796;DHT22;21916;52.428;13.302;2023-03-23T02:22:31;11.00;99.90
35796;DHT22;21916;52.428;13.302;2023-03-23T02:25:24;11.00;99.90
35796;DHT22;21916;52.428;13.302;2023-03-23T02:28:24;11.00;99.90
35796;DHT22;21916;52.428;13.302;2023-03-23T02:39:13;11.30;99.90
35796;DHT22;21916;52.428;13.302;2023-03-23T02:41:52;11.40;99.90
35796;DHT22;21916;52.428;13.302;2023-03-23T02:44:19;11.40;99.90
35796;DHT22;21916;52.428;13.302;2023-03-23T02:46:47;11.40;99.90
35796;DHT22;21916;52.428;13.302;2023-03-23T02:49:15;11.10;99.90
35796;DHT22;21916;52.428;13.302;2023-03-23T02:51:44;11.00;99.90
35796;DHT22;21916;52.428;13.302;2023-03-23T02:54:12;10.90;99.90
35796;DHT22;21916;52.428;13.302;2023-03-23T02:56:39;10.70;99.90
35796;DHT22;21916;52.428;13.302;2023-03-23T02:59:13;10.70;99.90
35796;DHT22;21916;52.428;13.302;2023-03-23T03:04:14;10.70;99.90
35796;DHT22;21916;52.428;13.302;2023-03-23T03:07:14;10.70;99.90
35796;DHT22;21916;52.428;13.302;2023-03-23T03:10:10;10.70;99.90
35796;DHT22;21916;52.428;13.302;2023-03-23T03:12:49;10.80;99.90
35796;DHT22;21916;52.428;13.302;2023-03-23T03:15:27;10.80;99.90
35796;DHT22;21916;52.428;13.302;2023-03-23T03:18:20;10.90;99.90
35796;DHT22;21916;52.428;13.302;2023-03-23T03:20:51;10.90;99.90
35796;DHT22;21916;52.428;13.302;2023-03-23T03:23:22;11.00;99.90
35796;DHT22;21916;52.428;13.302;2023-03-23T03:25:52;11.00;99.90
35796;DHT22;21916;52.428;13.302;2023-03-23T03:28:26;10.90;99.90
35796;DHT22;21916;52.428;13.302;2023-03-23T03:30:55;11.00;99.90
35796;DHT22;21916;52.428;13.302;2023-03-23T03:33:23;11.10;99.90
35796;DHT22;21916;52.428;13.302;2023-03-23T03:35:56;11.10;99.90
35796;DHT22;21916;52.428;13.302;2023-03-23T03:38:23;11.10;99.90
35796;DHT22;21916;52.428;13.302;2023-03-23T03:40:53;11.20;99.90
35796;DHT22;21916;52.428;13.302;2023-03-23T03:43:19;11.20;99.90
35796;DHT22;21916;52.428;13.302;2023-03-23T03:45:46;11.30;99.90
35796;DHT22;21916;52.428;13.302;2023-03-23T03:48:12;11.40;99.90
35796;DHT22;21916;52.428;13.302;2023-03-23T03:50:38;11.40;99.90
35796;DHT22;21916;52.428;13.302;2023-03-23T03:53:05;11.30;99.90
35796;DHT22;21916;52.428;13.302;2023-03-23T03:55:32;11.30;99.90
35796;DHT22;21916;52.428;13.302;2023-03-23T03:58:02;11.30;99.90
35796;DHT22;21916;52.428;13.302;2023-03-23T04:00:56;11.20;99.90
35796;DHT22;21916;52.428;13.302;2023-03-23T04:03:26;11.20;99.90
35796;DHT22;21916;52.428;13.302;2023-03-23T04:06:05;11.10;99.90
35796;DHT22;21916;52.428;13.302;2023-03-23T04:08:33;11.30;99.90
35796;DHT22;21916;52.428;13.302;2023-03-23T04:10:59;11.30;99.90
35796;DHT22;21916;52.428;13.302;2023-03-23T04:13:27;11.30;99.90
35796;DHT22;21916;52.428;13.302;2023-03-23T04:16:28;11.30;99.90
35796;DHT22;21916;52.428;13.302;2023-03-23T04:18:56;11.30;99.90
35796;DHT22;21916;52.428;13.302;2023-03-23T04:21:26;11.40;99.90
35796;DHT22;21916;52.428;13.302;2023-03-23T04:23:55;11.30;99.90
35796;DHT22;21916;52.428;13.302;2023-03-23T04:26:28;11.40;99.90
35796;DHT22;21916;52.428;13.302;2023-03-23T04:28:57;11.40;99.90
35796;DHT22;21916;52.428;13.302;2023-03-23T04:31:34;11.40;99.90
35796;DHT22;21916;52.428;13.302;2023-03-23T04:34:15;11.50;99.90
35796;DHT22;21916;52.428;13.302;2023-03-23T04:36:46;11.50;99.90
35796;DHT22;21916;52.428;13.302;2023-03-23T04:39:17;11.50;99.90
35796;DHT22;21916;52.428;13.302;2023-03-23T04:41:44;11.50;99.90
35796;DHT22;21916;52.428;13.302;2023-03-23T04:44:25;11.40;99.90
35796;DHT22;21916;52.428;13.302;2023-03-23T04:47:07;11.50;99.90
35796;DHT22;21916;52.428;13.302;2023-03-23T04:49:37;11.50;99.90
35796;DHT22;21916;52.428;13.302;2023-03-23T04:52:12;11.40;99.90
35796;DHT22;21916;52.428;13.302;2023-03-23T04:54:47;11.50;99.90
35796;DHT22;21916;52.428;13.302;2023-03-23T04:57:13;11.40;99.90
35796;DHT22;21916;52.428;13.302;2023-03-23T04:59:46;11.40;99.90
35796;DHT22;21916;52.428;13.302;2023-03-23T05:02:20;11.40;99.90
35796;DHT22;21916;52.428;13.302;2023-03-23T05:04:49;11.30;99.90
35796;DHT22;21916;52.428;13.302;2023-03-23T05:07:19;11.40;99.90
35796;DHT22;21916;52.428;13.302;2023-03-23T05:09:48;11.30;99.90
35796;DHT22;21916;52.428;13.302;2023-03-23T05:12:15;11.30;99.90
35796;DHT22;21916;52.428;13.302;2023-03-23T05:15:02;11.30;99.90
35796;DHT22;21916;52.428;13.302;2023-03-23T05:17:30;11.20;99.90
35796;DHT22;21916;52.428;13.302;2023-03-23T05:20:00;11.30;99.90
35796;DHT22;21916;52.428;13.302;2023-03-23T05:22:35;11.20;99.90
35796;DHT22;21916;52.428;13.302;2023-03-23T05:25:03;11.20;99.90
35796;DHT22;21916;52.428;13.302;2023-03-23T05:27:33;11.20;99.90
35796;DHT22;21916;52.428;13.302;2023-03-23T05:30:05;11.10;99.90
35796;DHT22;21916;52.428;13.302;2023-03-23T05:32:33;11.10;99.90
35796;DHT22;21916;52.428;13.302;2023-03-23T05:35:18;11.00;99.90
35796;DHT22;21916;52.428;13.302;2023-03-23T05:37:44;10.90;99.90
35796;DHT22;21916;52.428;13.302;2023-03-23T05:40:12;10.90;99.90
35796;DHT22;21916;52.428;13.302;2023-03-23T05:42:41;10.80;99.90
35796;DHT22;21916;52.428;13.302;2023-03-23T05:45:18;10.80;99.90
35796;DHT22;21916;52.428;13.302;2023-03-23T05:47:46;10.70;99.90
35796;DHT22;21916;52.428;13.302;2023-03-23T05:50:18;10.60;99.90
35796;DHT22;21916;52.428;13.302;2023-03-23T05:52:44;10.70;99.90
35796;DHT22;21916;52.428;13.302;2023-03-23T05:55:12;10.60;99.90
35796;DHT22;21916;52.428;13.302;2023-03-23T05:57:41;10.50;99.90
35796;DHT22;21916;52.428;13.302;2023-03-23T06:00:18;10.50;99.90
35796;DHT22;21916;52.428;13.302;2023-03-23T06:02:56;10.40;99.90
35796;DHT22;21916;52.428;13.302;2023-03-23T06:05:29;10.50;99.90
35796;DHT22;21916;52.428;13.302;2023-03-23T06:07:56;10.50;99.90
35796;DHT22;21916;52.428;13.302;2023-03-23T06:10:22;10.40;99.90
35796;DHT22;21916;52.428;13.302;2023-03-23T06:12:55;10.40;99.90
35796;DHT22;21916;52.428;13.302;2023-03-23T06:15:21;10.40;99.90
35796;DHT22;21916;52.428;13.302;2023-03-23T06:18:03;10.30;99.90
35796;DHT22;21916;52.428;13.302;2023-03-23T06:20:50;10.30;99.90
35796;DHT22;21916;52.428;13.302;2023-03-23T06:23:27;10.30;99.90
35796;DHT22;21916;52.428;13.302;2023-03-23T06:25:58;10.30;99.90
35796;DHT22;21916;52.428;13.302;2023-03-23T06:28:25;10.20;99.90
35796;DHT22;21916;52.428;13.302;2023-03-23T06:30:51;10.20;99.90
35796;DHT22;21916;52.428;13.302;2023-03-23T06:33:18;10.20;99.90
35796;DHT22;21916;52.428;13.302;2023-03-23T06:36:03;10.20;99.90
35796;DHT22;21916;52.428;13.302;2023-03-23T06:38:48;10.30;99.90
35796;DHT22;21916;52.428;13.302;2023-03-23T06:41:18;10.30;99.90
35796;DHT22;21916;52.428;13.302;2023-03-23T06:43:44;10.30;99.90
35796;DHT22;21916;52.428;13.302;2023-03-23T06:46:19;10.30;99.90
35796;DHT22;21916;52.428;13.302;2023-03-23T06:48:51;10.40;99.90
35796;DHT22;21916;52.428;13.302;2023-03-23T06:51:22;10.30;99.90
35796;DHT22;21916;52.428;13.302;2023-03-23T06:53:51;10.40;99.90
35796;DHT22;21916;52.428;13.302;2023-03-23T06:56:17;10.40;99.90
35796;DHT22;21916;52.428;13.302;2023-03-23T06:58:44;10.40;99.90
35796;DHT22;21916;52.428;13.302;2023-03-23T07:01:13;10.40;99.90
35796;DHT22;21916;52.428;13.302;2023-03-23T07:03:48;10.40;99.90
35796;DHT22;21916;52.428;13.302;2023-03-23T07:06:19;10.40;99.90
35796;DHT22;21916;52.428;13.302;2023-03-23T07:08:53;10.40;99.90
35796;DHT22;21916;52.428;13.302;2023-03-23T07:11:22;10.50;99.90
35796;DHT22;21916;52.428;13.302;2023-03-23T07:13:49;10.50;99.90
35796;DHT22;21916;52.428;13.302;2023-03-23T07:16:17;10.40;99.90
35796;DHT22;21916;52.428;13.302;2023-03-23T07:18:43;10.40;99.90
35796;DHT22;21916;52.428;13.302;2023-03-23T07:21:10;10.50;99.90
35796;DHT22;21916;52.428;13.302;2023-03-23T07:23:37;10.50;99.90
35796;DHT22;21916;52.428;13.302;2023-03-23T07:26:05;10.50;99.90
35796;DHT22;21916;52.428;13.302;2023-03-23T07:28:39;10.50;99.90
35796;DHT22;21916;52.428;13.302;2023-03-23T07:31:19;10.60;99.90
35796;DHT22;21916;52.428;13.302;2023-03-23T07:33:46;10.50;99.90
35796;DHT22;21916;52.428;13.302;2023-03-23T07:36:12;10.50;99.90
35796;DHT22;21916;52.428;13.302;2023-03-23T07:38:38;10.50;99.90
35796;DHT22;21916;52.428;13.302;2023-03-23T07:41:05;10.60;99.90
35796;DHT22;21916;52.428;13.302;2023-03-23T07:43:31;10.60;99.90
35796;DHT22;21916;52.428;13.302;2023-03-23T07:46:10;10.70;99.90
35796;DHT22;21916;52.428;13.302;2023-03-23T07:48:56;10.70;99.90
35796;DHT22;21916;52.428;13.302;2023-03-23T07:51:26;10.70;99.90
35796;DHT22;21916;52.428;13.302;2023-03-23T07:53:53;10.80;99.90
35796;DHT22;21916;52.428;13.302;2023-03-23T07:56:38;10.80;99.90
35796;DHT22;21916;52.428;13.302;2023-03-23T07:59:30;10.80;99.90
35796;DHT22;21916;52.428;13.302;2023-03-23T08:01:58;10.80;99.90
35796;DHT22;21916;52.428;13.302;2023-03-23T08:04:24;10.80;99.90
35796;DHT22;21916;52.428;13.302;2023-03-23T08:07:09;10.80;99.90
35796;DHT22;21916;52.428;13.302;2023-03-23T08:10:04;10.80;99.90
35796;DHT22;21916;52.428;13.302;2023-03-23T08:12:57;10.90;99.90
35796;DHT22;21916;52.428;13.302;2023-03-23T08:15:49;11.00;99.90
35796;DHT22;21916;52.428;13.302;2023-03-23T08:18:41;11.10;99.90
35796;DHT22;21916;52.428;13.302;2023-03-23T08:21:19;11.10;99.90
35796;DHT22;21916;52.428;13.302;2023-03-23T08:24:04;11.10;99.90
35796;DHT22;21916;52.428;13.302;2023-03-23T08:26:46;11.20;99.90
35796;DHT22;21916;52.428;13.302;2023-03-23T08:29:37;11.20;99.90
35796;DHT22;21916;52.428;13.302;2023-03-23T08:32:06;11.20;99.90
35796;DHT22;21916;52.428;13.302;2023-03-23T08:34:45;11.20;99.90
35796;DHT22;21916;52.428;13.302;2023-03-23T08:37:29;11.30;99.90
35796;DHT22;21916;52.428;13.302;2023-03-23T08:40:19;11.30;99.90
35796;DHT22;21916;52.428;13.302;2023-03-23T08:43:05;11.40;99.90
35796;DHT22;21916;52.428;13.302;2023-03-23T08:45:50;11.40;99.90
35796;DHT22;21916;52.428;13.302;2023-03-23T08:48:41;11.40;99.90
35796;DHT22;21916;52.428;13.302;2023-03-23T08:51:32;11.60;99.90
35796;DHT22;21916;52.428;13.302;2023-03-23T08:54:24;11.60;99.90
35796;DHT22;21916;52.428;13.302;2023-03-23T08:57:03;11.70;99.90
35796;DHT22;21916;52.428;13.302;2023-03-23T08:59:43;11.80;99.90
35796;DHT22;21916;52.428;13.302;2023-03-23T09:02:32;11.80;99.90
35796;DHT22;21916;52.428;13.302;2023-03-23T09:05:15;12.00;99.90
35796;DHT22;21916;52.428;13.302;2023-03-23T09:07:59;12.20;99.90
35796;DHT22;21916;52.428;13.302;2023-03-23T09:10:27;12.30;99.90
35796;DHT22;21916;52.428;13.302;2023-03-23T09:12:54;12.30;99.90
35796;DHT22;21916;52.428;13.302;2023-03-23T09:15:21;12.30;99.90
35796;DHT22;21916;52.428;13.302;2023-03-23T09:17:49;12.30;99.90
35796;DHT22;21916;52.428;13.302;2023-03-23T09:20:18;12.30;99.90
35796;DHT22;21916;52.428;13.302;2023-03-23T09:22:48;12.40;99.90
35796;DHT22;21916;52.428;13.302;2023-03-23T09:25:17;12.40;99.90
35796;DHT22;21916;52.428;13.302;2023-03-23T09:27:49;12.50;99.90
35796;DHT22;21916;52.428;13.302;2023-03-23T09:30:20;12.50;99.90
35796;DHT22;21916;52.428;13.302;2023-03-23T09:32:46;12.60;99.90
35796;DHT22;21916;52.428;13.302;2023-03-23T09:35:14;12.80;99.90
35796;DHT22;21916;52.428;13.302;2023-03-23T09:37:43;12.90;99.90
35796;DHT22;21916;52.428;13.302;2023-03-23T09:40:49;13.10;99.90
35796;DHT22;21916;52.428;13.302;2023-03-23T09:43:40;13.30;99.90
35796;DHT22;21916;52.428;13.302;2023-03-23T09:48:49;13.50;99.90
35796;DHT22;21916;52.428;13.302;2023-03-23T09:54:30;13.70;99.90
35796;DHT22;21916;52.428;13.302;2023-03-23T09:56:59;13.70;99.90
35796;DHT22;21916;52.428;13.302;2023-03-23T10:02:15;13.60;99.90
35796;DHT22;21916;52.428;13.302;2023-03-23T10:04:48;13.60;99.90
35796;DHT22;21916;52.428;13.302;2023-03-23T10:07:17;13.60;99.90
35796;DHT22;21916;52.428;13.302;2023-03-23T10:09:46;13.70;99.90
35796;DHT22;21916;52.428;13.302;2023-03-23T10:12:38;13.60;99.90
35796;DHT22;21916;52.428;13.302;2023-03-23T10:28:39;14.10;99.90
35796;DHT22;21916;52.428;13.302;2023-03-23T10:31:10;14.30;99.90
35796;DHT22;21916;52.428;13.302;2023-03-23T10:33:41;14.40;99.90
35796;DHT22;21916;52.428;13.302;2023-03-23T10:39:18;14.60;99.90
35796;DHT22;21916;52.428;13.302;2023-03-23T10:41:45;14.60;99.90
35796;DHT22;21916;52.428;13.302;2023-03-23T10:44:22;14.60;99.90
35796;DHT22;21916;52.428;13.302;2023-03-23T10:47:02;14.50;99.90
35796;DHT22;21916;52.428;13.302;2023-03-23T10:49:58;14.40;99.90
35796;DHT22;21916;52.428;13.302;2023-03-23T10:52:37;14.40;99.90
35796;DHT22;21916;52.428;13.302;2023-03-23T10:55:16;14.30;99.90
35796;DHT22;21916;52.428;13.302;2023-03-23T10:57:58;14.40;99.90
35796;DHT22;21916;52.428;13.302;2023-03-23T11:00:26;14.20;99.90
35796;DHT22;21916;52.428;13.302;2023-03-23T11:03:29;14.20;99.90
35796;DHT22;21916;52.428;13.302;2023-03-23T11:05:58;14.30;99.90
35796;DHT22;21916;52.428;13.302;2023-03-23T11:08:27;14.30;99.90
35796;DHT22;21916;52.428;13.302;2023-03-23T11:13:41;14.40;99.90
35796;DHT22;21916;52.428;13.302;2023-03-23T11:16:09;14.40;99.90
35796;DHT22;21916;52.428;13.302;2023-03-23T11:18:39;14.40;99.90
35796;DHT22;21916;52.428;13.302;2023-03-23T11:21:07;14.50;99.90
35796;DHT22;21916;52.428;13.302;2023-03-23T11:23:36;14.50;99.90
35796;DHT22;21916;52.428;13.302;2023-03-23T11:28:46;14.50;99.90
35796;DHT22;21916;52.428;13.302;2023-03-23T11:31:13;14.60;99.90
35796;DHT22;21916;52.428;13.302;2023-03-23T11:33:48;14.60;99.90
35796;DHT22;21916;52.428;13.302;2023-03-23T11:36:14;14.70;99.90
35796;DHT22;21916;52.428;13.302;2023-03-23T11:38:42;14.80;99.90
35796;DHT22;21916;52.428;13.302;2023-03-23T11:41:11;14.90;99.90
35796;DHT22;21916;52.428;13.302;2023-03-23T11:43:44;15.10;99.90
35796;DHT22;21916;52.428;13.302;2023-03-23T11:46:29;15.20;99.90
35796;DHT22;21916;52.428;13.302;2023-03-23T11:49:04;15.30;99.90
35796;DHT22;21916;52.428;13.302;2023-03-23T11:51:36;15.30;99.90
35796;DHT22;21916;52.428;13.302;2023-03-23T11:54:13;15.20;99.90
35796;DHT22;21916;52.428;13.302;2023-03-23T11:56:45;15.30;99.90
35796;DHT22;21916;52.428;13.302;2023-03-23T11:59:14;15.50;99.90
35796;DHT22;21916;52.428;13.302;2023-03-23T12:04:37;15.40;99.90
35796;DHT22;21916;52.428;13.302;2023-03-23T12:09:43;15.70;99.90
35796;DHT22;21916;52.428;13.302;2023-03-23T12:20:46;15.70;99.90
35796;DHT22;21916;52.428;13.302;2023-03-23T12:23:32;15.70;99.90
35796;DHT22;21916;52.428;13.302;2023-03-23T12:26:12;15.70;99.90
35796;DHT22;21916;52.428;13.302;2023-03-23T12:31:56;15.70;99.90
35796;DHT22;21916;52.428;13.302;2023-03-23T12:34:35;15.70;99.90
35796;DHT22;21916;52.428;13.302;2023-03-23T12:45:21;15.60;99.90
35796;DHT22;21916;52.428;13.302;2023-03-23T12:48:02;15.80;99.90
35796;DHT22;21916;52.428;13.302;2023-03-23T12:50:40;15.90;99.90
35796;DHT22;21916;52.428;13.302;2023-03-23T12:53:23;16.00;99.90
35796;DHT22;21916;52.428;13.302;2023-03-23T12:56:04;16.10;99.90
35796;DHT22;21916;52.428;13.302;2023-03-23T12:58:41;16.20;99.90
35796;DHT22;21916;52.428;13.302;2023-03-23T13:03:57;16.70;99.90
35796;DHT22;21916;52.428;13.302;2023-03-23T13:06:40;16.90;99.90
35796;DHT22;21916;52.428;13.302;2023-03-23T13:10:18;17.70;99.90
35796;DHT22;21916;52.428;13.302;2023-03-23T13:12:17;18.80;99.90
35796;DHT22;21916;52.428;13.302;2023-03-23T13:17:22;19.00;99.90
35796;DHT22;21916;52.428;13.302;2023-03-23T13:25:19;19.20;99.90
35796;DHT22;21916;52.428;13.302;2023-03-23T13:28:00;19.50;99.30
35796;DHT22;21916;52.428;13.302;2023-03-23T13:30:28;19.50;99.30
35796;DHT22;21916;52.428;13.302;2023-03-23T13:33:05;20.30;98.30
35796;DHT22;21916;52.428;13.302;2023-03-23T13:35:41;20.60;98.00
35796;DHT22;21916;52.428;13.302;2023-03-23T13:38:21;21.70;96.50
35796;DHT22;21916;52.428;13.302;2023-03-23T13:40:47;21.60;95.60
35796;DHT22;21916;52.428;13.302;2023-03-23T13:43:25;21.00;95.90
35796;DHT22;21916;52.428;13.302;2023-03-23T13:45:53;21.30;95.20
35796;DHT22;21916;52.428;13.302;2023-03-23T13:48:25;21.10;95.80
35796;DHT22;21916;52.428;13.302;2023-03-23T13:51:00;20.40;95.60
35796;DHT22;21916;52.428;13.302;2023-03-23T13:53:48;20.50;95.70
35796;DHT22;21916;52.428;13.302;2023-03-23T13:56:35;22.00;94.30
35796;DHT22;21916;52.428;13.302;2023-03-23T14:01:37;19.40;95.40
35796;DHT22;21916;52.428;13.302;2023-03-23T14:04:10;19.40;96.60
35796;DHT22;21916;52.428;13.302;2023-03-23T14:06:37;19.70;96.40
35796;DHT22;21916;52.428;13.302;2023-03-23T14:09:37;21.30;94.70
35796;DHT22;21916;52.428;13.302;2023-03-23T14:12:14;21.50;93.80
35796;DHT22;21916;52.428;13.302;2023-03-23T14:14:44;20.20;95.10
35796;DHT22;21916;52.428;13.302;2023-03-23T14:17:21;19.20;96.60
35796;DHT22;21916;52.428;13.302;2023-03-23T14:19:51;18.30;97.40
35796;DHT22;21916;52.428;13.302;2023-03-23T14:22:28;17.50;99.00
35796;DHT22;21916;52.428;13.302;2023-03-23T14:25:07;17.20;99.70
35796;DHT22;21916;52.428;13.302;2023-03-23T14:27:35;17.00;99.90
35796;DHT22;21916;52.428;13.302;2023-03-23T14:30:13;16.70;99.90
35796;DHT22;21916;52.428;13.302;2023-03-23T14:32:40;16.60;99.90
35796;DHT22;21916;52.428;13.302;2023-03-23T14:35:12;16.40;99.90
35796;DHT22;21916;52.428;13.302;2023-03-23T14:37:39;16.20;99.90
35796;DHT22;21916;52.428;13.302;2023-03-23T14:40:14;16.10;99.90
35796;DHT22;21916;52.428;13.302;2023-03-23T14:42:41;16.00;99.90
35796;DHT22;21916;52.428;13.302;2023-03-23T14:45:14;15.80;99.90
35796;DHT22;21916;52.428;13.302;2023-03-23T14:47:47;15.50;99.90
35796;DHT22;21916;52.428;13.302;2023-03-23T14:51:17;15.10;99.90
35796;DHT22;21916;52.428;13.302;2023-03-23T14:53:34;15.00;99.90
35796;DHT22;21916;52.428;13.302;2023-03-23T14:56:06;15.00;99.90
35796;DHT22;21916;52.428;13.302;2023-03-23T14:58:34;16.10;99.90
35796;DHT22;21916;52.428;13.302;2023-03-23T15:01:22;16.40;99.90
35796;DHT22;21916;52.428;13.302;2023-03-23T15:03:59;16.60;99.90
35796;DHT22;21916;52.428;13.302;2023-03-23T15:06:29;17.50;99.90
35796;DHT22;21916;52.428;13.302;2023-03-23T15:09:06;18.30;99.90
35796;DHT22;21916;52.428;13.302;2023-03-23T15:11:37;20.20;99.90
35796;DHT22;21916;52.428;13.302;2023-03-23T15:14:17;22.10;96.80
35796;DHT22;21916;52.428;13.302;2023-03-23T15:16:51;22.80;95.70
35796;DHT22;21916;52.428;13.302;2023-03-23T15:22:11;22.40;93.50
35796;DHT22;21916;52.428;13.302;2023-03-23T15:24:41;21.90;93.60
35796;DHT22;21916;52.428;13.302;2023-03-23T15:27:15;22.20;92.70
35796;DHT22;21916;52.428;13.302;2023-03-23T15:29:53;21.60;93.10
35796;DHT22;21916;52.428;13.302;2023-03-23T15:32:24;21.60;92.70
35796;DHT22;21916;52.428;13.302;2023-03-23T15:34:52;21.50;92.80
35796;DHT22;21916;52.428;13.302;2023-03-23T15:37:29;21.90;92.30
35796;DHT22;21916;52.428;13.302;2023-03-23T15:39:57;21.90;92.00
35796;DHT22;21916;52.428;13.302;2023-03-23T15:42:27;21.50;92.80
35796;DHT22;21916;52.428;13.302;2023-03-23T15:47:35;20.90;92.00
35796;DHT22;21916;52.428;13.302;2023-03-23T15:50:08;20.30;93.20
35796;DHT22;21916;52.428;13.302;2023-03-23T15:52:35;20.80;92.80
35796;DHT22;21916;52.428;13.302;2023-03-23T15:55:01;20.10;92.50
35796;DHT22;21916;52.428;13.302;2023-03-23T15:57:27;18.90;93.70
35796;DHT22;21916;52.428;13.302;2023-03-23T15:59:53;18.30;95.10
35796;DHT22;21916;52.428;13.302;2023-03-23T16:02:21;17.90;95.60
35796;DHT22;21916;52.428;13.302;2023-03-23T16:04:49;17.50;95.70
35796;DHT22;21916;52.428;13.302;2023-03-23T16:07:16;17.20;96.70
35796;DHT22;21916;52.428;13.302;2023-03-23T16:09:42;17.10;97.30
35796;DHT22;21916;52.428;13.302;2023-03-23T16:12:11;17.00;97.40
35796;DHT22;21916;52.428;13.302;2023-03-23T16:14:40;16.80;97.50
35796;DHT22;21916;52.428;13.302;2023-03-23T16:17:10;16.50;97.70
35796;DHT22;21916;52.428;13.302;2023-03-23T16:19:38;16.40;98.20
35796;DHT22;21916;52.428;13.302;2023-03-23T16:22:04;16.30;98.30
35796;DHT22;21916;52.428;13.302;2023-03-23T16:24:30;16.30;98.90
35796;DHT22;21916;52.428;13.302;2023-03-23T16:26:56;16.20;99.10
35796;DHT22;21916;52.428;13.302;2023-03-23T16:29:22;16.10;99.50
35796;DHT22;21916;52.428;13.302;2023-03-23T16:31:47;16.10;99.80
35796;DHT22;21916;52.428;13.302;2023-03-23T16:34:14;16.00;99.80
35796;DHT22;21916;52.428;13.302;2023-03-23T16:36:40;16.00;99.90
35796;DHT22;21916;52.428;13.302;2023-03-23T16:39:10;15.90;99.90
35796;DHT22;21916;52.428;13.302;2023-03-23T16:41:36;15.90;99.90
35796;DHT22;21916;52.428;13.302;2023-03-23T16:44:02;15.80;99.90
35796;DHT22;21916;52.428;13.302;2023-03-23T16:46:28;15.70;99.90
35796;DHT22;21916;52.428;13.302;2023-03-23T16:48:54;15.70;99.90
35796;DHT22;21916;52.428;13.302;2023-03-23T16:51:21;15.70;99.90
35796;DHT22;21916;52.428;13.302;2023-03-23T16:53:47;15.60;99.90
35796;DHT22;21916;52.428;13.302;2023-03-23T16:56:12;15.60;99.90
35796;DHT22;21916;52.428;13.302;2023-03-23T16:58:39;15.50;99.90
35796;DHT22;21916;52.428;13.302;2023-03-23T17:01:07;15.50;99.90
35796;DHT22;21916;52.428;13.302;2023-03-23T17:03:33;15.50;99.90
35796;DHT22;21916;52.428;13.302;2023-03-23T17:06:00;15.40;99.90
35796;DHT22;21916;52.428;13.302;2023-03-23T17:08:26;15.30;99.90
35796;DHT22;21916;52.428;13.302;2023-03-23T17:10:53;15.00;99.90
35796;DHT22;21916;52.428;13.302;2023-03-23T17:13:19;14.80;99.90
35796;DHT22;21916;52.428;13.302;2023-03-23T17:15:45;14.70;99.90
35796;DHT22;21916;52.428;13.302;2023-03-23T17:18:11;14.50;99.90
35796;DHT22;21916;52.428;13.302;2023-03-23T17:20:37;14.30;99.90
35796;DHT22;21916;52.428;13.302;2023-03-23T17:23:03;14.20;99.90
35796;DHT22;21916;52.428;13.302;2023-03-23T17:25:29;14.10;99.90